Time,TemperatureF,DewpointF,PressureIn,WindDirection,WindDirectionDegrees,WindSpeedMPH,WindSpeedGustMPH,Humidity,HourlyPrecipIn,Conditions,Clouds,dailyrainin,SolarRadiationWatts/m^2,SoftwareType,DateUTC
2013-11-12 00:02:00,24.9,20.2,30.26,NNW,341,2.0,12.0,82,0.00,RA,RA,0.00,0.0,WeatherDisplay:10.37,2013-11-12 06:02:00,
2013-11-12 00:07:00,24.7,20.0,30.26,NNW,342,2.0,6.0,82,0.00,CLR,CLR,0.00,0.0,WeatherDisplay:10.37,2013-11-12 06:07:00,
2013-11-12 00:12:00,24.5,19.8,30.26,NNW,343,5.0,9.0,82,0.00,CLR,CLR,0.00,0.0,WeatherDisplay:10.37,2013-11-12 06:12:00,
2013-11-12 00:17:00,24.4,20.0,30.27,NNW,344,2.0,4.0,83,0.00,CLR,CLR,0.00,0.0,WeatherDisplay:10.37,2013-11-12 06:17:00,
2013-11-12 00:22:00,24.3,19.8,30.27,NNW,345,2.0,8.0,83,0.00,CLR,CLR,0.00,0.0,WeatherDisplay:10.37,2013-11-12 06:22:00,
2013-11-12 00:27:00,24.2,19.8,30.27,NNW,345,1.0,8.0,83,0.00,CLR,CLR,0.00,0.0,WeatherDisplay:10.37,2013-11-12 06:27:00,
2013-11-12 00:32:00,24.1,20.0,30.27,NNW,340,2.0,7.0,84,0.00,CLR,CLR,0.00,0.0,WeatherDisplay:10.37,2013-11-12 06:32:00,
2013-11-12 00:42:00,23.8,19.7,30.27,NNW,346,2.0,4.0,84,0.00,CLR,CLR,0.00,0.0,WeatherDisplay:10.37,2013-11-12 06:42:00,
2013-11-12 00:47:00,23.7,19.5,30.27,NNW,340,3.0,6.0,84,0.00,CLR,CLR,0.00,0.0,WeatherDisplay:10.37,2013-11-12 06:47:00,
2013-11-12 00:52:00,23.6,19.5,30.27,NNW,340,2.0,4.0,84,0.00,CLR,CLR,0.00,0.0,WeatherDisplay:10.37,2013-11-12 06:52:00,
2013-11-12 00:57:00,23.6,19.7,30.27,NNW,336,1.0,4.0,85,0.00,CLR,CLR,0.00,0.0,WeatherDisplay:10.37,2013-11-12 06:57:00,
2013-11-12 01:02:00,23.4,19.3,30.27,NNW,327,1.0,5.0,84,0.00,CLR,CLR,0.00,0.0,WeatherDisplay:10.37,2013-11-12 07:02:00,
2013-11-12 01:07:00,23.3,19.5,30.27,NNW,330,2.0,4.0,85,0.00,CLR,CLR,0.00,0.0,WeatherDisplay:10.37,2013-11-12 07:07:00,
2013-11-12 01:12:00,23.3,19.4,30.28,NNW,333,3.0,8.0,85,0.00,CLR,CLR,0.00,0.0,WeatherDisplay:10.37,2013-11-12 07:12:00,
2013-11-12 01:17:00,23.3,19.5,30.28,NNW,343,0.0,3.0,85,0.00,CLR,CLR,0.00,0.0,WeatherDisplay:10.37,2013-11-12 07:17:00,
2013-11-12 01:22:00,23.2,19.4,30.28,North,355,1.0,3.0,85,0.00,CLR,CLR,0.00,0.0,WeatherDisplay:10.37,2013-11-12 07:22:00,
2013-11-12 01:27:00,23.0,19.2,30.28,NNW,348,1.0,4.0,85,0.00,CLR,CLR,0.00,0.0,WeatherDisplay:10.37,2013-11-12 07:27:00,
2013-11-12 01:32:00,22.9,19.3,30.28,NNW,343,1.0,2.0,86,0.00,CLR,CLR,0.00,0.0,WeatherDisplay:10.37,2013-11-12 07:32:00,
2013-11-12 01:37:00,22.8,19.0,30.28,NNW,344,1.0,3.0,85,0.00,CLR,CLR,0.00,0.0,WeatherDisplay:10.37,2013-11-12 07:37:00,
2013-11-12 01:42:00,22.7,19.1,30.29,NNW,347,1.0,5.0,86,0.00,CLR,CLR,0.00,0.0,WeatherDisplay:10.37,2013-11-12 07:42:00,
2013-11-12 01:47:00,22.7,19.1,30.29,North,349,1.0,4.0,86,0.00,CLR,CLR,0.00,0.0,WeatherDisplay:10.37,2013-11-12 07:47:00,
2013-11-12 01:52:00,22.7,19.1,30.29,North,350,1.0,3.0,86,0.00,CLR,CLR,0.00,0.0,WeatherDisplay:10.37,2013-11-12 07:52:00,
2013-11-12 01:57:00,22.5,18.9,30.29,North,350,0.0,2.0,86,0.00,CLR,CLR,0.00,0.0,WeatherDisplay:10.37,2013-11-12 07:57:00,
2013-11-12 02:02:00,22.4,18.8,30.29,North,350,0.0,3.0,86,0.00,CLR,CLR,0.00,0.0,WeatherDisplay:10.37,2013-11-12 08:02:00,
2013-11-12 02:07:00,22.2,18.7,30.29,North,350,1.0,2.0,86,0.00,CLR,CLR,0.00,0.0,WeatherDisplay:10.37,2013-11-12 08:07:00,
2013-11-12 02:12:00,22.1,18.8,30.30,North,349,0.0,3.0,87,0.00,CLR,CLR,0.00,0.0,WeatherDisplay:10.37,2013-11-12 08:12:00,
2013-11-12 02:17:00,22.0,18.7,30.30,North,349,0.0,2.0,87,0.00,CLR,CLR,0.00,0.0,WeatherDisplay:10.37,2013-11-12 08:17:00,
2013-11-12 02:22:00,21.8,18.6,30.30,NW,325,1.0,3.0,87,0.00,CLR,CLR,0.00,0.0,WeatherDisplay:10.37,2013-11-12 08:22:00,
2013-11-12 02:27:00,21.8,18.5,30.30,NNW,331,1.0,3.0,87,0.00,CLR,CLR,0.00,0.0,WeatherDisplay:10.37,2013-11-12 08:27:00,
2013-11-12 02:32:00,21.7,18.4,30.30,NNW,345,1.0,2.0,87,0.00,CLR,CLR,0.00,0.0,WeatherDisplay:10.37,2013-11-12 08:32:00,
2013-11-12 02:37:00,21.7,18.7,30.30,NNW,345,1.0,3.0,88,0.00,CLR,CLR,0.00,0.0,WeatherDisplay:10.37,2013-11-12 08:37:00,
2013-11-12 02:42:00,21.7,18.4,30.31,NNW,336,2.0,4.0,87,0.00,CLR,CLR,0.00,0.0,WeatherDisplay:10.37,2013-11-12 08:42:00,
2013-11-12 02:47:00,21.8,18.5,30.31,NNW,330,0.0,4.0,87,0.00,CLR,CLR,0.00,0.0,WeatherDisplay:10.37,2013-11-12 08:47:00,
2013-11-12 02:52:00,21.7,18.4,30.31,NNW,327,0.0,2.0,87,0.00,CLR,CLR,0.00,0.0,WeatherDisplay:10.37,2013-11-12 08:52:00,
2013-11-12 02:57:00,21.6,18.3,30.31,NNW,345,1.0,3.0,87,0.00,CLR,CLR,0.00,0.0,WeatherDisplay:10.37,2013-11-12 08:57:00,
2013-11-12 03:02:00,21.6,18.3,30.32,NNW,340,1.0,4.0,87,0.00,CLR,CLR,0.00,0.0,WeatherDisplay:10.37,2013-11-12 09:02:00,
2013-11-12 03:07:00,21.6,18.3,30.32,NNW,329,2.0,6.0,87,0.00,CLR,CLR,0.00,0.0,WeatherDisplay:10.37,2013-11-12 09:07:00,
2013-11-12 03:12:00,21.7,18.4,30.32,NW,324,1.0,3.0,87,0.00,CLR,CLR,0.00,0.0,WeatherDisplay:10.37,2013-11-12 09:12:00,
2013-11-12 03:17:00,21.7,18.4,30.32,NW,322,2.0,4.0,87,0.00,CLR,CLR,0.00,0.0,WeatherDisplay:10.37,2013-11-12 09:17:00,
2013-11-12 03:22:00,21.8,18.5,30.32,NW,324,1.0,3.0,87,0.00,CLR,CLR,0.00,0.0,WeatherDisplay:10.37,2013-11-12 09:22:00,
2013-11-12 03:27:00,21.7,18.4,30.32,NW,323,1.0,4.0,87,0.00,CLR,CLR,0.00,0.0,WeatherDisplay:10.37,2013-11-12 09:27:00,
2013-11-12 03:32:00,21.7,18.4,30.32,NNW,327,1.0,6.0,87,0.00,CLR,CLR,0.00,0.0,WeatherDisplay:10.37,2013-11-12 09:32:00,
2013-11-12 03:37:00,21.7,18.4,30.32,NNW,331,1.0,5.0,87,0.00,CLR,CLR,0.00,0.0,WeatherDisplay:10.37,2013-11-12 09:37:00,
2013-11-12 03:42:00,21.7,18.4,30.33,NNW,327,2.0,5.0,87,0.00,CLR,CLR,0.00,0.0,WeatherDisplay:10.37,2013-11-12 09:42:00,
2013-11-12 03:47:00,21.6,18.3,30.33,NW,321,1.0,5.0,87,0.00,CLR,CLR,0.00,0.0,WeatherDisplay:10.37,2013-11-12 09:47:00,
2013-11-12 03:52:00,21.6,18.3,30.33,NNW,332,2.0,5.0,87,0.00,CLR,CLR,0.00,0.0,WeatherDisplay:10.37,2013-11-12 09:52:00,
2013-11-12 03:57:00,21.6,18.3,30.33,NNW,337,1.0,4.0,87,0.00,CLR,CLR,0.00,0.0,WeatherDisplay:10.37,2013-11-12 09:57:00,
2013-11-12 04:02:00,21.6,18.4,30.34,NNW,327,2.0,4.0,87,0.00,CLR,CLR,0.00,0.0,WeatherDisplay:10.37,2013-11-12 10:02:00,
2013-11-12 04:07:00,21.7,18.4,30.34,NNW,330,1.0,3.0,87,0.00,CLR,CLR,0.00,0.0,WeatherDisplay:10.37,2013-11-12 10:07:00,
2013-11-12 04:12:00,21.6,18.3,30.34,NNW,337,1.0,3.0,87,0.00,CLR,CLR,0.00,0.0,WeatherDisplay:10.37,2013-11-12 10:12:00,
2013-11-12 04:17:00,21.5,18.3,30.34,NNW,340,2.0,4.0,87,0.00,CLR,CLR,0.00,0.0,WeatherDisplay:10.37,2013-11-12 10:17:00,
2013-11-12 04:22:00,21.6,18.3,30.34,NNW,331,1.0,7.0,87,0.00,CLR,CLR,0.00,0.0,WeatherDisplay:10.37,2013-11-12 10:22:00,
2013-11-12 04:27:00,21.6,18.3,30.35,NW,326,1.0,3.0,87,0.00,CLR,CLR,0.00,0.0,WeatherDisplay:10.37,2013-11-12 10:27:00,
2013-11-12 04:32:00,21.6,18.3,30.35,NNW,329,1.0,4.0,87,0.00,CLR,CLR,0.00,0.0,WeatherDisplay:10.37,2013-11-12 10:32:00,
2013-11-12 04:37:00,21.5,18.2,30.35,NNW,330,1.0,2.0,87,0.00,CLR,CLR,0.00,0.0,WeatherDisplay:10.37,2013-11-12 10:37:00,
2013-11-12 04:42:00,21.4,18.2,30.35,NNW,330,1.0,3.0,87,0.00,CLR,CLR,0.00,0.0,WeatherDisplay:10.37,2013-11-12 10:42:00,
2013-11-12 04:47:00,21.5,18.5,30.36,NNW,329,1.0,4.0,88,0.00,CLR,CLR,0.00,0.0,WeatherDisplay:10.37,2013-11-12 10:47:00,
2013-11-12 04:52:00,21.5,18.5,30.36,NW,324,2.0,5.0,88,0.00,CLR,CLR,0.00,0.0,WeatherDisplay:10.37,2013-11-12 10:52:00,
2013-11-12 04:57:00,21.6,18.6,30.36,NNW,327,1.0,6.0,88,0.00,CLR,CLR,0.00,0.0,WeatherDisplay:10.37,2013-11-12 10:57:00,
2013-11-12 05:02:00,21.6,18.3,30.36,NNW,327,1.0,5.0,87,0.00,CLR,CLR,0.00,0.0,WeatherDisplay:10.37,2013-11-12 11:02:00,
2013-11-12 05:12:00,21.5,18.3,30.37,NNW,331,1.0,3.0,87,0.00,CLR,CLR,0.00,0.0,WeatherDisplay:10.37,2013-11-12 11:12:00,
2013-11-12 05:22:00,21.5,18.5,30.37,NNW,329,1.0,3.0,88,0.00,CLR,CLR,0.00,0.0,WeatherDisplay:10.37,2013-11-12 11:22:00,
2013-11-12 05:27:00,21.4,18.4,30.38,NW,324,1.0,3.0,88,0.00,CLR,CLR,0.00,0.0,WeatherDisplay:10.37,2013-11-12 11:27:00,
2013-11-12 05:37:00,21.5,18.5,30.38,NNW,336,1.0,7.0,88,0.00,CLR,CLR,0.00,0.0,WeatherDisplay:10.37,2013-11-12 11:37:00,
2013-11-12 05:42:00,21.5,18.5,30.38,NNW,335,1.0,5.0,88,0.00,CLR,CLR,0.00,0.0,WeatherDisplay:10.37,2013-11-12 11:42:00,
2013-11-12 05:47:00,21.6,18.6,30.38,NNW,334,2.0,4.0,88,0.00,CLR,CLR,0.00,0.0,WeatherDisplay:10.37,2013-11-12 11:47:00,
2013-11-12 05:52:00,21.6,18.6,30.39,NNW,341,1.0,3.0,88,0.00,CLR,CLR,0.00,0.0,WeatherDisplay:10.37,2013-11-12 11:52:00,
2013-11-12 05:57:00,21.5,18.5,30.39,NNW,347,2.0,4.0,88,0.00,CLR,CLR,0.00,0.0,WeatherDisplay:10.37,2013-11-12 11:57:00,
2013-11-12 06:02:00,21.6,18.6,30.39,NNW,337,1.0,3.0,88,0.00,CLR,CLR,0.00,0.0,WeatherDisplay:10.37,2013-11-12 12:02:00,
2013-11-12 06:07:00,21.6,18.6,30.39,NW,325,1.0,4.0,88,0.00,CLR,CLR,0.00,0.0,WeatherDisplay:10.37,2013-11-12 12:07:00,
2013-11-12 06:12:00,21.6,18.6,30.40,NNW,330,1.0,7.0,88,0.00,CLR,CLR,0.00,0.0,WeatherDisplay:10.37,2013-11-12 12:12:00,
2013-11-12 06:17:00,21.7,18.6,30.40,NNW,336,1.0,4.0,88,0.00,CLR,CLR,0.00,0.0,WeatherDisplay:10.37,2013-11-12 12:17:00,
2013-11-12 06:22:00,21.6,18.6,30.40,NNW,344,2.0,7.0,88,0.00,CLR,CLR,0.00,0.0,WeatherDisplay:10.37,2013-11-12 12:22:00,
2013-11-12 06:27:00,21.6,18.6,30.41,North,350,1.0,3.0,88,0.00,CLR,CLR,0.00,0.0,WeatherDisplay:10.37,2013-11-12 12:27:00,
2013-11-12 06:32:00,21.5,18.5,30.41,NNW,339,0.0,3.0,88,0.00,CLR,CLR,0.00,0.0,WeatherDisplay:10.37,2013-11-12 12:32:00,
2013-11-12 06:37:00,21.5,18.8,30.41,NNW,343,1.0,4.0,89,0.00,CLR,CLR,0.00,0.0,WeatherDisplay:10.37,2013-11-12 12:37:00,
2013-11-12 06:42:00,21.5,18.8,30.41,NNW,348,1.0,4.0,89,0.00,CLR,CLR,0.00,0.0,WeatherDisplay:10.37,2013-11-12 12:42:00,
2013-11-12 06:47:00,21.6,18.8,30.41,NNW,337,1.0,8.0,89,0.00,CLR,CLR,0.00,0.0,WeatherDisplay:10.37,2013-11-12 12:47:00,
2013-11-12 06:57:00,21.8,19.1,30.42,NNW,333,2.0,5.0,89,0.00,CLR,CLR,0.00,0.0,WeatherDisplay:10.37,2013-11-12 12:57:00,
2013-11-12 07:02:00,22.1,19.4,30.42,NW,326,1.0,4.0,89,0.00,CLR,CLR,0.00,0.0,WeatherDisplay:10.37,2013-11-12 13:02:00,
2013-11-12 07:07:00,22.4,19.3,30.42,NNW,332,1.0,4.0,88,0.00,CLR,CLR,0.00,0.0,WeatherDisplay:10.37,2013-11-12 13:07:00,
2013-11-12 07:12:00,22.7,19.7,30.42,NNW,335,1.0,6.0,88,0.00,CLR,CLR,0.00,0.0,WeatherDisplay:10.37,2013-11-12 13:12:00,
2013-11-12 07:17:00,23.1,20.1,30.42,NNW,337,1.0,6.0,88,0.00,CLR,CLR,0.00,0.0,WeatherDisplay:10.37,2013-11-12 13:17:00,
2013-11-12 07:22:00,23.4,20.4,30.42,NNW,335,2.0,5.0,88,0.00,CLR,CLR,0.00,0.0,WeatherDisplay:10.37,2013-11-12 13:22:00,
2013-11-12 07:27:00,23.7,20.4,30.42,NNW,328,1.0,6.0,87,0.00,CLR,CLR,0.00,0.0,WeatherDisplay:10.37,2013-11-12 13:27:00,
2013-11-12 07:32:00,24.1,20.8,30.43,NNW,330,2.0,6.0,87,0.00,CLR,CLR,0.00,0.0,WeatherDisplay:10.37,2013-11-12 13:32:00,
2013-11-12 07:37:00,24.4,21.1,30.43,NNW,335,1.0,6.0,87,0.00,CLR,CLR,0.00,0.0,WeatherDisplay:10.37,2013-11-12 13:37:00,
2013-11-12 07:42:00,24.6,21.1,30.43,NNW,332,3.0,7.0,86,0.00,CLR,CLR,0.00,0.0,WeatherDisplay:10.37,2013-11-12 13:42:00,
2013-11-12 07:47:00,24.9,21.6,30.43,NNW,334,2.0,5.0,87,0.00,CLR,CLR,0.00,0.0,WeatherDisplay:10.37,2013-11-12 13:47:00,
2013-11-12 07:52:00,25.2,21.6,30.43,NNW,336,2.0,4.0,86,0.00,CLR,CLR,0.00,0.0,WeatherDisplay:10.37,2013-11-12 13:52:00,
2013-11-12 07:57:00,25.6,22.0,30.44,NNW,327,3.0,5.0,86,0.00,CLR,CLR,0.00,0.0,WeatherDisplay:10.37,2013-11-12 13:57:00,
2013-11-12 08:02:00,25.9,22.3,30.44,NNW,330,2.0,4.0,86,0.00,CLR,CLR,0.00,0.0,WeatherDisplay:10.37,2013-11-12 14:02:00,
2013-11-12 08:07:00,26.2,22.6,30.44,NNW,333,3.0,6.0,86,0.00,CLR,CLR,0.00,0.0,WeatherDisplay:10.37,2013-11-12 14:07:00,
2013-11-12 08:12:00,26.4,22.8,30.45,NNW,333,3.0,6.0,86,0.00,CLR,CLR,0.00,0.0,WeatherDisplay:10.37,2013-11-12 14:12:00,
2013-11-12 08:17:00,26.6,22.7,30.45,NNW,347,5.0,7.0,85,0.00,CLR,CLR,0.00,0.0,WeatherDisplay:10.37,2013-11-12 14:17:00,
2013-11-12 08:22:00,26.8,22.9,30.45,NNW,341,3.0,10.0,85,0.00,CLR,CLR,0.00,0.0,WeatherDisplay:10.37,2013-11-12 14:22:00,
2013-11-12 08:27:00,27.0,23.1,30.45,NNW,332,2.0,5.0,85,0.00,CLR,CLR,0.00,0.0,WeatherDisplay:10.37,2013-11-12 14:27:00,
2013-11-12 08:32:00,27.2,23.0,30.45,NNW,331,3.0,7.0,84,0.00,CLR,CLR,0.00,0.0,WeatherDisplay:10.37,2013-11-12 14:32:00,
2013-11-12 08:37:00,27.3,23.1,30.45,NNW,327,5.0,8.0,84,0.00,CLR,CLR,0.00,0.0,WeatherDisplay:10.37,2013-11-12 14:37:00,
2013-11-12 08:42:00,27.5,23.6,30.45,NNW,332,2.0,5.0,85,0.00,CLR,CLR,0.00,0.0,WeatherDisplay:10.37,2013-11-12 14:42:00,
2013-11-12 08:47:00,27.8,23.9,30.45,NNW,339,2.0,6.0,85,0.00,CLR,CLR,0.00,0.0,WeatherDisplay:10.37,2013-11-12 14:47:00,
2013-11-12 08:52:00,28.1,24.1,30.46,NNW,333,2.0,6.0,85,0.00,CLR,CLR,0.00,0.0,WeatherDisplay:10.37,2013-11-12 14:52:00,
2013-11-12 08:57:00,28.2,24.0,30.46,NNW,329,2.0,6.0,84,0.00,CLR,CLR,0.00,0.0,WeatherDisplay:10.37,2013-11-12 14:57:00,
2013-11-12 09:02:00,28.4,24.1,30.46,NNW,327,3.0,8.0,84,0.00,CLR,CLR,0.00,0.0,WeatherDisplay:10.37,2013-11-12 15:02:00,
2013-11-12 09:07:00,28.5,24.3,30.46,NNW,328,3.0,6.0,84,0.00,CLR,CLR,0.00,0.0,WeatherDisplay:10.37,2013-11-12 15:07:00,
2013-11-12 09:12:00,28.7,24.5,30.47,NNW,329,3.0,7.0,84,0.01,RA,RA,0.01,0.0,WeatherDisplay:10.37,2013-11-12 15:12:00,
2013-11-12 09:17:00,29.0,25.0,30.47,NNW,333,2.0,6.0,85,0.00,RA,RA,0.01,0.0,WeatherDisplay:10.37,2013-11-12 15:17:00,
2013-11-12 09:22:00,29.3,25.1,30.47,NNW,334,2.0,6.0,84,0.00,CLR,CLR,0.01,0.0,WeatherDisplay:10.37,2013-11-12 15:22:00,
2013-11-12 09:27:00,29.6,25.4,30.47,NNW,332,2.0,7.0,84,0.00,CLR,CLR,0.01,0.0,WeatherDisplay:10.37,2013-11-12 15:27:00,
2013-11-12 09:32:00,29.9,25.7,30.47,NNW,336,3.0,6.0,84,0.00,CLR,CLR,0.01,0.0,WeatherDisplay:10.37,2013-11-12 15:32:00,
2013-11-12 09:37:00,30.1,25.3,30.47,NNW,333,3.0,6.0,82,0.01,RA,RA,0.02,0.0,WeatherDisplay:10.37,2013-11-12 15:37:00,
2013-11-12 09:42:00,30.2,25.9,30.47,NNW,330,3.0,7.0,84,0.00,RA,RA,0.02,0.0,WeatherDisplay:10.37,2013-11-12 15:42:00,
2013-11-12 09:47:00,30.2,25.7,30.47,NNW,327,3.0,8.0,83,0.00,CLR,CLR,0.02,0.0,WeatherDisplay:10.37,2013-11-12 15:47:00,
2013-11-12 09:52:00,30.2,25.9,30.47,NNW,332,3.0,7.0,84,0.00,CLR,CLR,0.02,0.0,WeatherDisplay:10.37,2013-11-12 15:52:00,
2013-11-12 09:57:00,30.4,26.1,30.47,NNW,336,2.0,6.0,84,0.00,CLR,CLR,0.02,0.0,WeatherDisplay:10.37,2013-11-12 15:57:00,
2013-11-12 10:02:00,30.4,25.5,30.47,NNW,331,3.0,7.0,82,0.00,CLR,CLR,0.02,0.0,WeatherDisplay:10.37,2013-11-12 16:02:00,
2013-11-12 10:07:00,30.3,25.5,30.47,NW,326,3.0,8.0,82,0.00,CLR,CLR,0.02,0.0,WeatherDisplay:10.37,2013-11-12 16:07:00,
2013-11-12 10:12:00,30.6,26.0,30.47,NW,321,5.0,7.0,83,0.00,CLR,CLR,0.02,0.0,WeatherDisplay:10.37,2013-11-12 16:12:00,
2013-11-12 10:17:00,30.7,25.8,30.47,NNW,330,3.0,7.0,82,0.00,CLR,CLR,0.02,0.0,WeatherDisplay:10.37,2013-11-12 16:17:00,
2013-11-12 10:22:00,31.0,27.0,30.47,NNW,336,5.0,7.0,85,0.00,CLR,CLR,0.02,0.0,WeatherDisplay:10.37,2013-11-12 16:22:00,
2013-11-12 10:32:00,31.1,26.6,30.47,NNW,331,2.0,7.0,83,0.00,CLR,CLR,0.02,0.0,WeatherDisplay:10.37,2013-11-12 16:32:00,
2013-11-12 10:37:00,31.4,26.6,30.47,NW,325,3.0,6.0,82,0.00,CLR,CLR,0.02,0.0,WeatherDisplay:10.37,2013-11-12 16:37:00,
2013-11-12 10:47:00,31.9,27.3,30.47,NNW,332,3.0,6.0,83,0.01,RA,RA,0.03,0.0,WeatherDisplay:10.37,2013-11-12 16:47:00,
2013-11-12 10:52:00,32.0,26.8,30.47,NNW,327,3.0,7.0,81,0.00,RA,RA,0.03,0.0,WeatherDisplay:10.37,2013-11-12 16:52:00,
2013-11-12 10:57:00,32.3,27.4,30.47,NNW,332,5.0,7.0,82,0.00,CLR,CLR,0.03,0.0,WeatherDisplay:10.37,2013-11-12 16:57:00,
2013-11-12 11:02:00,32.2,26.4,30.47,NNW,329,2.0,8.0,79,0.00,CLR,CLR,0.03,0.0,WeatherDisplay:10.37,2013-11-12 17:02:00,
2013-11-12 11:07:00,32.1,26.3,30.47,NW,314,5.0,7.0,79,0.00,CLR,CLR,0.03,0.0,WeatherDisplay:10.37,2013-11-12 17:07:00,
2013-11-12 11:17:00,32.4,26.6,30.47,NW,323,3.0,7.0,79,0.00,CLR,CLR,0.03,0.0,WeatherDisplay:10.37,2013-11-12 17:17:00,
2013-11-12 11:22:00,32.7,27.2,30.47,NW,321,3.0,8.0,80,0.00,CLR,CLR,0.03,0.0,WeatherDisplay:10.37,2013-11-12 17:22:00,
2013-11-12 11:27:00,32.9,28.0,30.47,NW,322,3.0,6.0,82,0.00,CLR,CLR,0.03,0.0,WeatherDisplay:10.37,2013-11-12 17:27:00,
2013-11-12 11:32:00,33.0,26.6,30.47,NNW,327,6.0,9.0,77,0.00,CLR,CLR,0.03,0.0,WeatherDisplay:10.37,2013-11-12 17:32:00,
2013-11-12 11:37:00,33.1,27.3,30.46,NW,325,5.0,7.0,79,0.00,CLR,CLR,0.03,0.0,WeatherDisplay:10.37,2013-11-12 17:37:00,
2013-11-12 11:42:00,33.1,27.0,30.46,NW,321,3.0,8.0,78,0.00,CLR,CLR,0.03,0.0,WeatherDisplay:10.37,2013-11-12 17:42:00,
2013-11-12 11:47:00,33.4,26.3,30.46,NW,316,5.0,6.0,75,0.00,CLR,CLR,0.03,0.0,WeatherDisplay:10.37,2013-11-12 17:47:00,
2013-11-12 11:52:00,33.8,26.7,30.46,NW,318,3.0,6.0,75,0.00,CLR,CLR,0.03,0.0,WeatherDisplay:10.37,2013-11-12 17:52:00,
2013-11-12 11:57:00,33.6,26.2,30.46,NW,311,3.0,7.0,74,0.00,CLR,CLR,0.03,0.0,WeatherDisplay:10.37,2013-11-12 17:57:00,
2013-11-12 12:07:00,33.8,26.0,30.46,NW,315,5.0,8.0,73,0.00,CLR,CLR,0.03,0.0,WeatherDisplay:10.37,2013-11-12 18:07:00,
2013-11-12 12:17:00,33.6,24.8,30.46,NW,315,5.0,8.0,70,0.00,CLR,CLR,0.03,0.0,WeatherDisplay:10.37,2013-11-12 18:17:00,
2013-11-12 12:22:00,33.7,26.0,30.46,NW,313,5.0,7.0,73,0.00,CLR,CLR,0.03,0.0,WeatherDisplay:10.37,2013-11-12 18:22:00,
2013-11-12 12:27:00,33.7,24.2,30.46,NW,311,6.0,10.0,68,0.00,CLR,CLR,0.03,0.0,WeatherDisplay:10.37,2013-11-12 18:27:00,
2013-11-12 12:32:00,33.7,24.9,30.46,NW,314,3.0,7.0,70,0.00,CLR,CLR,0.03,0.0,WeatherDisplay:10.37,2013-11-12 18:32:00,
2013-11-12 12:37:00,33.8,25.0,30.46,NW,316,6.0,8.0,70,0.00,CLR,CLR,0.03,0.0,WeatherDisplay:10.37,2013-11-12 18:37:00,
2013-11-12 12:42:00,33.5,25.1,30.46,NW,304,5.0,8.0,71,0.00,CLR,CLR,0.03,0.0,WeatherDisplay:10.37,2013-11-12 18:42:00,
2013-11-12 12:47:00,33.5,24.0,30.45,WNW,299,6.0,9.0,68,0.00,CLR,CLR,0.03,0.0,WeatherDisplay:10.37,2013-11-12 18:47:00,
2013-11-12 12:52:00,33.3,25.2,30.45,WNW,299,5.0,8.0,72,0.00,CLR,CLR,0.03,0.0,WeatherDisplay:10.37,2013-11-12 18:52:00,
2013-11-12 12:57:00,33.7,25.3,30.45,WNW,297,3.0,7.0,71,0.00,CLR,CLR,0.03,0.0,WeatherDisplay:10.37,2013-11-12 18:57:00,
2013-11-12 13:02:00,33.7,25.6,30.45,WNW,298,2.0,8.0,72,0.00,CLR,CLR,0.03,0.0,WeatherDisplay:10.37,2013-11-12 19:02:00,
2013-11-12 13:07:00,33.8,25.4,30.45,WNW,301,3.0,7.0,71,0.00,CLR,CLR,0.03,0.0,WeatherDisplay:10.37,2013-11-12 19:07:00,
2013-11-12 13:12:00,33.9,25.1,30.45,NW,305,3.0,8.0,70,0.00,CLR,CLR,0.03,0.0,WeatherDisplay:10.37,2013-11-12 19:12:00,
2013-11-12 13:17:00,34.1,26.0,30.45,NW,313,6.0,9.0,72,0.00,CLR,CLR,0.03,0.0,WeatherDisplay:10.37,2013-11-12 19:17:00,
2013-11-12 13:27:00,33.5,24.1,30.45,WNW,297,3.0,10.0,68,0.00,CLR,CLR,0.03,0.0,WeatherDisplay:10.37,2013-11-12 19:27:00,
2013-11-12 13:37:00,33.7,26.0,30.45,WNW,294,5.0,7.0,73,0.00,CLR,CLR,0.03,0.0,WeatherDisplay:10.37,2013-11-12 19:37:00,
2013-11-12 13:42:00,33.8,24.7,30.45,WNW,289,5.0,7.0,69,0.00,CLR,CLR,0.03,0.0,WeatherDisplay:10.37,2013-11-12 19:42:00,
2013-11-12 13:47:00,33.9,25.5,30.45,WNW,290,5.0,8.0,71,0.00,CLR,CLR,0.03,0.0,WeatherDisplay:10.37,2013-11-12 19:47:00,
2013-11-12 13:52:00,34.0,26.3,30.45,WNW,298,6.0,9.0,73,0.00,CLR,CLR,0.03,0.0,WeatherDisplay:10.37,2013-11-12 19:52:00,
2013-11-12 13:57:00,34.1,26.0,30.45,WNW,302,5.0,7.0,72,0.00,CLR,CLR,0.03,0.0,WeatherDisplay:10.37,2013-11-12 19:57:00,
2013-11-12 14:02:00,34.2,25.4,30.45,NW,305,5.0,8.0,70,0.00,CLR,CLR,0.03,0.0,WeatherDisplay:10.37,2013-11-12 20:02:00,
2013-11-12 14:12:00,34.0,24.9,30.45,NW,309,6.0,9.0,69,0.00,CLR,CLR,0.03,0.0,WeatherDisplay:10.37,2013-11-12 20:12:00,
2013-11-12 14:17:00,33.7,25.0,30.45,WNW,302,6.0,8.0,70,0.00,CLR,CLR,0.03,0.0,WeatherDisplay:10.37,2013-11-12 20:17:00,
2013-11-12 14:22:00,33.8,25.0,30.45,WNW,294,6.0,8.0,70,0.00,CLR,CLR,0.03,0.0,WeatherDisplay:10.37,2013-11-12 20:22:00,
2013-11-12 14:27:00,33.7,24.6,30.45,WNW,295,5.0,9.0,69,0.00,CLR,CLR,0.03,0.0,WeatherDisplay:10.37,2013-11-12 20:27:00,
2013-11-12 14:32:00,33.8,25.4,30.45,WNW,301,5.0,7.0,71,0.00,CLR,CLR,0.03,0.0,WeatherDisplay:10.37,2013-11-12 20:32:00,
2013-11-12 14:37:00,33.8,24.7,30.45,WNW,303,6.0,9.0,69,0.00,CLR,CLR,0.03,0.0,WeatherDisplay:10.37,2013-11-12 20:37:00,
2013-11-12 14:42:00,33.4,25.0,30.45,WNW,300,5.0,8.0,71,0.00,CLR,CLR,0.03,0.0,WeatherDisplay:10.37,2013-11-12 20:42:00,
2013-11-12 14:47:00,33.5,24.8,30.45,NW,305,3.0,8.0,70,0.00,CLR,CLR,0.03,0.0,WeatherDisplay:10.37,2013-11-12 20:47:00,
2013-11-12 14:52:00,33.5,25.1,30.45,NW,309,6.0,7.0,71,0.00,CLR,CLR,0.03,0.0,WeatherDisplay:10.37,2013-11-12 20:52:00,
2013-11-12 14:57:00,33.4,24.7,30.45,NW,310,5.0,7.0,70,0.00,CLR,CLR,0.03,0.0,WeatherDisplay:10.37,2013-11-12 20:57:00,
2013-11-12 15:02:00,33.3,24.9,30.45,WNW,300,3.0,7.0,71,0.00,CLR,CLR,0.03,0.0,WeatherDisplay:10.37,2013-11-12 21:02:00,
2013-11-12 15:07:00,33.3,24.6,30.45,WNW,293,5.0,7.0,70,0.00,CLR,CLR,0.03,0.0,WeatherDisplay:10.37,2013-11-12 21:07:00,
2013-11-12 15:12:00,33.2,24.1,30.44,WNW,292,5.0,7.0,69,0.00,CLR,CLR,0.03,0.0,WeatherDisplay:10.37,2013-11-12 21:12:00,
2013-11-12 15:17:00,32.9,24.2,30.45,WNW,291,5.0,8.0,70,0.00,CLR,CLR,0.03,0.0,WeatherDisplay:10.37,2013-11-12 21:17:00,
2013-11-12 15:22:00,33.0,25.0,30.44,WNW,298,3.0,5.0,72,0.00,CLR,CLR,0.03,0.0,WeatherDisplay:10.37,2013-11-12 21:22:00,
2013-11-12 15:27:00,33.0,23.6,30.44,WNW,302,3.0,10.0,68,0.00,CLR,CLR,0.03,0.0,WeatherDisplay:10.37,2013-11-12 21:27:00,
2013-11-12 15:32:00,32.8,23.4,30.44,WNW,303,5.0,7.0,68,0.00,CLR,CLR,0.03,0.0,WeatherDisplay:10.37,2013-11-12 21:32:00,
2013-11-12 15:37:00,32.7,23.6,30.44,NW,305,2.0,5.0,69,0.00,CLR,CLR,0.03,0.0,WeatherDisplay:10.37,2013-11-12 21:37:00,
2013-11-12 15:42:00,32.6,23.9,30.44,WNW,299,5.0,8.0,70,0.00,CLR,CLR,0.03,0.0,WeatherDisplay:10.37,2013-11-12 21:42:00,
2013-11-12 15:47:00,32.3,23.6,30.43,WNW,293,3.0,8.0,70,0.00,CLR,CLR,0.03,0.0,WeatherDisplay:10.37,2013-11-12 21:47:00,
2013-11-12 15:52:00,32.1,23.8,30.44,WNW,294,2.0,8.0,71,0.00,CLR,CLR,0.03,0.0,WeatherDisplay:10.37,2013-11-12 21:52:00,
2013-11-12 15:57:00,32.0,23.7,30.43,WNW,299,3.0,8.0,71,0.00,CLR,CLR,0.03,0.0,WeatherDisplay:10.37,2013-11-12 21:57:00,
2013-11-12 16:02:00,31.8,23.1,30.44,WNW,300,2.0,6.0,70,0.00,CLR,CLR,0.03,0.0,WeatherDisplay:10.37,2013-11-12 22:02:00,
2013-11-12 16:07:00,31.5,23.2,30.43,WNW,299,2.0,4.0,71,0.00,CLR,CLR,0.03,0.0,WeatherDisplay:10.37,2013-11-12 22:07:00,
2013-11-12 16:12:00,31.3,23.6,30.43,NW,304,2.0,4.0,73,0.00,CLR,CLR,0.03,0.0,WeatherDisplay:10.37,2013-11-12 22:12:00,
2013-11-12 16:17:00,30.9,23.6,30.43,NW,313,1.0,3.0,74,0.00,CLR,CLR,0.03,0.0,WeatherDisplay:10.37,2013-11-12 22:17:00,
2013-11-12 16:27:00,30.2,23.9,30.43,WNW,296,1.0,2.0,77,0.00,CLR,CLR,0.03,0.0,WeatherDisplay:10.37,2013-11-12 22:27:00,
2013-11-12 16:32:00,29.7,23.7,30.43,WNW,296,1.0,3.0,78,0.00,CLR,CLR,0.03,0.0,WeatherDisplay:10.37,2013-11-12 22:32:00,
2013-11-12 16:37:00,29.2,23.5,30.43,WNW,296,1.0,2.0,79,0.00,CLR,CLR,0.03,0.0,WeatherDisplay:10.37,2013-11-12 22:37:00,
2013-11-12 16:47:00,28.3,23.2,30.43,WNW,296,1.0,2.0,81,0.00,CLR,CLR,0.03,0.0,WeatherDisplay:10.37,2013-11-12 22:47:00,
2013-11-12 16:57:00,27.6,22.5,30.43,WNW,296,2.0,3.0,81,0.00,CLR,CLR,0.03,0.0,WeatherDisplay:10.37,2013-11-12 22:57:00,
2013-11-12 17:02:00,27.4,22.3,30.43,WNW,296,1.0,2.0,81,0.00,CLR,CLR,0.03,0.0,WeatherDisplay:10.37,2013-11-12 23:02:00,
2013-11-12 17:12:00,26.7,22.0,30.43,WNW,296,1.0,2.0,82,0.00,CLR,CLR,0.03,0.0,WeatherDisplay:10.37,2013-11-12 23:12:00,
2013-11-12 17:22:00,26.1,21.6,30.44,WNW,296,1.0,2.0,83,0.00,CLR,CLR,0.03,0.0,WeatherDisplay:10.37,2013-11-12 23:22:00,
2013-11-12 17:32:00,26.0,21.5,30.44,WNW,296,1.0,3.0,83,0.00,CLR,CLR,0.03,0.0,WeatherDisplay:10.37,2013-11-12 23:32:00,
2013-11-12 17:37:00,25.8,21.3,30.43,WNW,296,1.0,2.0,83,0.00,CLR,CLR,0.03,0.0,WeatherDisplay:10.37,2013-11-12 23:37:00,
2013-11-12 17:42:00,25.6,21.4,30.43,WNW,296,1.0,2.0,84,0.00,CLR,CLR,0.03,0.0,WeatherDisplay:10.37,2013-11-12 23:42:00,
2013-11-12 17:47:00,25.4,20.9,30.44,WNW,296,1.0,2.0,83,0.00,CLR,CLR,0.03,0.0,WeatherDisplay:10.37,2013-11-12 23:47:00,
2013-11-12 17:52:00,25.1,20.6,30.43,WNW,296,0.0,2.0,83,0.00,CLR,CLR,0.03,0.0,WeatherDisplay:10.37,2013-11-12 23:52:00,
2013-11-12 17:57:00,24.8,20.7,30.43,WNW,296,1.0,3.0,84,0.00,CLR,CLR,0.03,0.0,WeatherDisplay:10.37,2013-11-12 23:57:00,
2013-11-12 18:07:00,24.9,20.8,30.43,WNW,296,2.0,3.0,84,0.00,CLR,CLR,0.03,0.0,WeatherDisplay:10.37,2013-11-13 00:07:00,
2013-11-12 18:12:00,25.0,20.8,30.43,WNW,295,2.0,3.0,84,0.00,CLR,CLR,0.03,0.0,WeatherDisplay:10.37,2013-11-13 00:12:00,
2013-11-12 18:17:00,25.0,20.8,30.43,WNW,294,0.0,2.0,84,0.00,CLR,CLR,0.03,0.0,WeatherDisplay:10.37,2013-11-13 00:17:00,
2013-11-12 18:22:00,24.9,20.8,30.43,WNW,287,1.0,5.0,84,0.00,CLR,CLR,0.03,0.0,WeatherDisplay:10.37,2013-11-13 00:22:00,
2013-11-12 18:27:00,24.8,20.7,30.43,West,279,1.0,2.0,84,0.00,CLR,CLR,0.03,0.0,WeatherDisplay:10.37,2013-11-13 00:27:00,
2013-11-12 18:32:00,24.6,20.1,30.43,West,279,1.0,2.0,83,0.00,CLR,CLR,0.03,0.0,WeatherDisplay:10.37,2013-11-13 00:32:00,
2013-11-12 18:42:00,23.9,19.8,30.43,West,279,1.0,3.0,84,0.00,CLR,CLR,0.03,0.0,WeatherDisplay:10.37,2013-11-13 00:42:00,
2013-11-12 18:47:00,23.7,19.9,30.42,West,279,2.0,3.0,85,0.00,CLR,CLR,0.03,0.0,WeatherDisplay:10.37,2013-11-13 00:47:00,
2013-11-12 18:52:00,23.6,20.0,30.42,West,279,2.0,3.0,86,0.00,CLR,CLR,0.03,0.0,WeatherDisplay:10.37,2013-11-13 00:52:00,
2013-11-12 19:02:00,23.5,20.0,30.42,West,279,1.0,3.0,86,0.00,CLR,CLR,0.03,0.0,WeatherDisplay:10.37,2013-11-13 01:02:00,
2013-11-12 19:07:00,23.8,20.2,30.42,West,279,1.0,3.0,86,0.00,CLR,CLR,0.03,0.0,WeatherDisplay:10.37,2013-11-13 01:07:00,
2013-11-12 19:12:00,23.9,20.0,30.42,West,279,2.0,3.0,85,0.00,CLR,CLR,0.03,0.0,WeatherDisplay:10.37,2013-11-13 01:12:00,
2013-11-12 19:22:00,24.5,20.6,30.42,West,279,2.0,4.0,85,0.00,CLR,CLR,0.03,0.0,WeatherDisplay:10.37,2013-11-13 01:22:00,
2013-11-12 19:32:00,24.7,20.3,30.42,WNW,283,3.0,6.0,83,0.00,CLR,CLR,0.03,0.0,WeatherDisplay:10.37,2013-11-13 01:32:00,
2013-11-12 19:42:00,24.8,20.4,30.42,WNW,291,1.0,3.0,83,0.00,CLR,CLR,0.03,0.0,WeatherDisplay:10.37,2013-11-13 01:42:00,
2013-11-12 19:47:00,24.7,20.3,30.42,WNW,286,1.0,3.0,83,0.00,CLR,CLR,0.03,0.0,WeatherDisplay:10.37,2013-11-13 01:47:00,
2013-11-12 19:57:00,23.6,19.5,30.42,WNW,286,1.0,2.0,84,0.00,CLR,CLR,0.03,0.0,WeatherDisplay:10.37,2013-11-13 01:57:00,
2013-11-12 20:02:00,23.2,19.3,30.42,WNW,286,2.0,3.0,85,0.00,CLR,CLR,0.03,0.0,WeatherDisplay:10.37,2013-11-13 02:02:00,
2013-11-12 20:12:00,22.7,19.1,30.43,WNW,286,1.0,3.0,86,0.00,CLR,CLR,0.03,0.0,WeatherDisplay:10.37,2013-11-13 02:12:00,
2013-11-12 20:22:00,22.4,19.1,30.43,WNW,286,1.0,4.0,87,0.00,CLR,CLR,0.03,0.0,WeatherDisplay:10.37,2013-11-13 02:22:00,
2013-11-12 20:32:00,22.0,18.7,30.42,WNW,286,1.0,3.0,87,0.00,CLR,CLR,0.03,0.0,WeatherDisplay:10.37,2013-11-13 02:32:00,
2013-11-12 20:37:00,22.0,18.8,30.42,WNW,286,2.0,3.0,87,0.00,CLR,CLR,0.03,0.0,WeatherDisplay:10.37,2013-11-13 02:37:00,
2013-11-12 20:42:00,22.2,18.9,30.42,WNW,285,2.0,4.0,87,0.00,CLR,CLR,0.03,0.0,WeatherDisplay:10.37,2013-11-13 02:42:00,
2013-11-12 20:52:00,22.6,19.6,30.42,WNW,282,2.0,3.0,88,0.00,CLR,CLR,0.03,0.0,WeatherDisplay:10.37,2013-11-13 02:52:00,
2013-11-12 20:57:00,22.7,19.7,30.41,WNW,282,2.0,3.0,88,0.00,CLR,CLR,0.03,0.0,WeatherDisplay:10.37,2013-11-13 02:57:00,
2013-11-12 21:02:00,22.5,19.3,30.41,WNW,282,2.0,4.0,87,0.00,CLR,CLR,0.03,0.0,WeatherDisplay:10.37,2013-11-13 03:02:00,
2013-11-12 21:07:00,22.4,19.1,30.41,West,276,3.0,5.0,87,0.00,CLR,CLR,0.03,0.0,WeatherDisplay:10.37,2013-11-13 03:07:00,
2013-11-12 21:12:00,22.6,19.6,30.42,West,265,2.0,4.0,88,0.00,CLR,CLR,0.03,0.0,WeatherDisplay:10.37,2013-11-13 03:12:00,
2013-11-12 21:22:00,22.4,19.1,30.42,WSW,256,2.0,4.0,87,0.00,CLR,CLR,0.03,0.0,WeatherDisplay:10.37,2013-11-13 03:22:00,
2013-11-12 21:27:00,22.0,18.4,30.42,West,259,2.0,3.0,86,0.00,CLR,CLR,0.03,0.0,WeatherDisplay:10.37,2013-11-13 03:27:00,
2013-11-12 21:32:00,21.6,18.3,30.42,West,259,2.0,3.0,87,0.00,CLR,CLR,0.03,0.0,WeatherDisplay:10.37,2013-11-13 03:32:00,
2013-11-12 21:37:00,21.5,18.5,30.42,West,259,1.0,3.0,88,0.00,CLR,CLR,0.03,0.0,WeatherDisplay:10.37,2013-11-13 03:37:00,
2013-11-12 21:42:00,21.4,18.4,30.42,West,259,1.0,3.0,88,0.00,CLR,CLR,0.03,0.0,WeatherDisplay:10.37,2013-11-13 03:42:00,
2013-11-12 21:47:00,21.3,18.3,30.42,West,259,1.0,2.0,88,0.00,CLR,CLR,0.03,0.0,WeatherDisplay:10.37,2013-11-13 03:47:00,
2013-11-12 21:52:00,21.3,18.3,30.42,West,259,2.0,3.0,88,0.00,CLR,CLR,0.03,0.0,WeatherDisplay:10.37,2013-11-13 03:52:00,
2013-11-12 21:57:00,21.2,18.2,30.42,West,259,2.0,3.0,88,0.00,CLR,CLR,0.03,0.0,WeatherDisplay:10.37,2013-11-13 03:57:00,
2013-11-12 22:02:00,21.3,18.3,30.42,West,259,2.0,3.0,88,0.00,CLR,CLR,0.03,0.0,WeatherDisplay:10.37,2013-11-13 04:02:00,
2013-11-12 22:07:00,21.3,18.3,30.42,West,259,2.0,3.0,88,0.00,CLR,CLR,0.03,0.0,WeatherDisplay:10.37,2013-11-13 04:07:00,
2013-11-12 22:12:00,21.3,18.3,30.42,West,259,1.0,3.0,88,0.00,CLR,CLR,0.03,0.0,WeatherDisplay:10.37,2013-11-13 04:12:00,
2013-11-12 22:22:00,21.1,18.1,30.42,West,259,1.0,2.0,88,0.00,CLR,CLR,0.03,0.0,WeatherDisplay:10.37,2013-11-13 04:22:00,
2013-11-12 22:27:00,20.8,17.8,30.42,West,259,2.0,3.0,88,0.00,CLR,CLR,0.03,0.0,WeatherDisplay:10.37,2013-11-13 04:27:00,
2013-11-12 22:32:00,20.7,18.0,30.41,West,259,1.0,3.0,89,0.00,CLR,CLR,0.03,0.0,WeatherDisplay:10.37,2013-11-13 04:32:00,
2013-11-12 22:37:00,20.7,18.0,30.41,West,259,2.0,3.0,89,0.00,CLR,CLR,0.03,0.0,WeatherDisplay:10.37,2013-11-13 04:37:00,
2013-11-12 22:42:00,20.7,18.0,30.41,West,259,1.0,3.0,89,0.00,CLR,CLR,0.03,0.0,WeatherDisplay:10.37,2013-11-13 04:42:00,
2013-11-12 22:47:00,20.6,17.9,30.42,West,259,2.0,3.0,89,0.00,CLR,CLR,0.03,0.0,WeatherDisplay:10.37,2013-11-13 04:47:00,
2013-11-12 22:52:00,20.6,17.9,30.42,West,259,1.0,2.0,89,0.00,CLR,CLR,0.03,0.0,WeatherDisplay:10.37,2013-11-13 04:52:00,
2013-11-12 22:57:00,20.5,17.8,30.42,West,259,2.0,3.0,89,0.00,CLR,CLR,0.03,0.0,WeatherDisplay:10.37,2013-11-13 04:57:00,
2013-11-12 23:02:00,20.5,17.8,30.42,West,259,1.0,2.0,89,0.00,CLR,CLR,0.03,0.0,WeatherDisplay:10.37,2013-11-13 05:02:00,
2013-11-12 23:07:00,20.3,17.6,30.42,West,259,0.0,2.0,89,0.00,CLR,CLR,0.03,0.0,WeatherDisplay:10.37,2013-11-13 05:07:00,
2013-11-12 23:12:00,20.2,17.5,30.42,West,259,0.0,2.0,89,0.00,CLR,CLR,0.03,0.0,WeatherDisplay:10.37,2013-11-13 05:12:00,
2013-11-12 23:17:00,20.3,17.8,30.41,West,259,1.0,2.0,90,0.00,CLR,CLR,0.03,0.0,WeatherDisplay:10.37,2013-11-13 05:17:00,
2013-11-12 23:22:00,20.4,17.7,30.41,West,259,2.0,3.0,89,0.00,CLR,CLR,0.03,0.0,WeatherDisplay:10.37,2013-11-13 05:22:00,
2013-11-12 23:27:00,20.4,17.7,30.41,West,259,1.0,3.0,89,0.00,CLR,CLR,0.03,0.0,WeatherDisplay:10.37,2013-11-13 05:27:00,
2013-11-12 23:32:00,20.2,17.5,30.41,West,259,1.0,3.0,89,0.00,CLR,CLR,0.03,0.0,WeatherDisplay:10.37,2013-11-13 05:32:00,
2013-11-12 23:37:00,20.1,17.1,30.41,West,259,1.0,2.0,88,0.00,CLR,CLR,0.03,0.0,WeatherDisplay:10.37,2013-11-13 05:37:00,
2013-11-12 23:42:00,20.1,17.3,30.40,West,259,1.0,2.0,89,0.00,CLR,CLR,0.03,0.0,WeatherDisplay:10.37,2013-11-13 05:42:00,
2013-11-12 23:47:00,20.0,17.3,30.40,West,259,1.0,3.0,89,0.00,CLR,CLR,0.03,0.0,WeatherDisplay:10.37,2013-11-13 05:47:00,
2013-11-12 23:52:00,20.0,17.3,30.40,West,259,1.0,2.0,89,0.00,CLR,CLR,0.03,0.0,WeatherDisplay:10.37,2013-11-13 05:52:00,
2013-11-12 23:57:00,19.8,16.8,30.40,West,259,2.0,3.0,88,0.00,RA,RA,0.00,0.0,WeatherDisplay:10.37,2013-11-13 05:57:00,